Walnut, California
Current Conditions -  °F | °C
As of 3:53 PM on Friday 24 Oct 2014 (Local Time) from KCNO Reporting Station
Clear Clear  
Wind Chill: 32°   Ceiling: Unl
Heat Index: 32°   Visibility: 10mi
Dew Point:   Wind: 13mph
Humidity: 19%   Direction: 250°WSW
Pressure: 29.93"   Gusts: NA
Location:  34.03°N, 117.84°W
Report Text: KCNO 242253Z 25011KT 10SM CLR 32/06 A2993 RMK AO2 SLP131 T03220056
Loading
Personal Weather Stations






























Interactive Weather Map
Tropical Storm Tracking
New forecast layout! Learn more

10-Day Weather Forecast

Advertisements
Track Severe Weather on mobile